Relevés horaires Schaffen (Belgique)


Relevés horaires à Schaffen - Vendredi 14 Févr. 2020
Heure UTC1 Température [°C] Vent [km/h] Hum. [%] Pres.4 [hPa] Visi. [Km] Nébu. [octa] Préc.5 [mm] Cond.
2m. Res. Ros. Dir.2 Vit. Moy. Raf.3
23:00 7.2 6.4 3.7 S 5.6 -- 11.1 78 1022.3(-1.1/3h) 20 -- -- --
22:00 7.1 6.3 4.1 S 5.6 -- 9.3 81 1022.7(-0.7/3h) 20 -- -- --
21:00 8.0 6.8 4.5 S 7.4 -- 11.1 79 1023.2(0.0/3h) 20 -- -- --
20:00 7.5 7.5 4.4 S 3.7 -- 5.6 81 1023.5(0.8/3h) 20 -- -- --
19:00 8.5 8.5 4.4 S 3.7 -- 9.3 75 1023.5(1.1/3h) 20 -- -- --
18:00 9.1 9.1 4.0 S 3.7 -- 13.0 70 1023.1(1.1/3h) 20 -- -- --
17:00 9.2 9.2 3.9 SSO 3.7 -- 9.3 69 1022.7(0.6/3h) 20 -- -- --
16:00 9.3 9.3 3.8 SO 3.7 -- 13.0 68 1022.3(0.0/3h) 20 -- -- --
15:00 9.3 8.8 3.2 SO 5.6 -- 13.0 66 1022(-0.2/3h) 20 -- -- --
14:00 9.0 8.4 3.3 SSO 5.6 -- 11.1 67 1022(-0.1/3h) 20 7/8 -- --
13:00 8.7 8.1 2.6 OSO 5.6 -- 13.0 65 1022.3(1.1/3h) 20 6/8 -- --
12:00 8.1 7.4 2.5 SO 5.6 -- 14.8 68 1022.3(1.8/3h) 20 7/8 -- --
11:00 7.5 6.2 1.8 OSO 7.4 -- 11.1 67 1022.2(2.6/3h) 20 7/8 -- --
10:00 7.3 7.3 3.2 SO 3.7 -- 11.1 75 1021.2(3.0/3h) 20 7/8 -- --
09:00 6.8 5.4 3.1 OSO 7.4 -- 14.8 77 1020.5(3.6/3h) 20 7/8 -- --
08:00 6.4 5.5 3.0 O 5.6 -- 13.0 79 1019.6(3.9/3h) 20 7/8 -- --
07:00 6.1 4.6 3.1 O 7.4 -- 14.8 81 1018.2(4.0/3h) 20 7/8 -- --
06:00 6.1 4.6 3.2 OSO 7.4 -- 20.4 82 1016.7(4.1/3h) 20 -- 0.2/12h
NA
05:00 6.0 5 3.3 O 5.6 -- 13.0 83 1015.5(3.8/3h) 20 -- -- --
04:00 6.0 4.5 3.6 OSO 7.4 -- 18.5 85 1014.1(3.5/3h) 15 -- -- --
03:00 6.4 4.5 3.1 O 9.3 -- 20.4 79 1012.6(3.6/3h) 17 -- -- NA
02:00 6.8 5.4 3.4 O 7.4 -- 14.8 79 1011.7(4.3/3h) 20 -- -- --
01:00 6.5 4.6 4.4 O 9.3 -- 18.5 86 1010.3(5.0/3h) 19 -- -- NA
00:00 7.1 5.3 5.0 O 9.3 -- 18.5 86 1008.8(5.6/3h) 15 -- 0.1/6h
NA

1 Coordinated Universal Time. Actuellement il est 05:00 locale et 03:00 UTC.

2 Le vent souffle depuis la direction indiquée vers la direction oposée.

3 Les rafales max. sont disponible 40 min après l'heure du relevé.

4 Pour les stations d'altitude (plus de 600m) le géopotentiel du niveau le plus proche de la pression obligatoire est indiqué.

5 Les stations disposant d'un diffuseur peuvent indiquer "trace". Cela signifie que des précipitations ont touchés le sol mais que la quantité est inférieure à 0.1 mm.

Récapitulatif de la journée
Température [°C] Vent [km/h] Ensoleillement4 [h] Precipitations totale5 [mm] Pression [Hpa]
Min1 Max.2 Moy.3 Max. Min Max.
5.9 9.5 0 20.4 0 h 0 min 0 1008.8 1023.5

1 Température minimale relevée entre 18:00 UTC la veille et 18:00 UTC le jour donné.

2 Température maximale relevée entre 06:00 UTC le jour donné et 06:00 UTC le lendemain.

3 Vent moyen de la journée basé sur les relevés horaires.

4 Ensoleillement en heures relevé entre 06:00 UTC la veille et 06:00 UTC le jour donné.

5 Précipitations totales tombées entre 06:00 UTC la jour donné et 06:00 UTC le lendemain.

Graphiques horaires